createdAt,value
2022-10-21T00:01:32.911Z,20.80
2022-10-21T00:06:36.706Z,20.79
2022-10-21T00:11:40.253Z,20.81
2022-10-21T00:16:45.608Z,20.86
2022-10-21T00:21:59.589Z,20.90
2022-10-21T00:27:04.527Z,20.93
2022-10-21T00:32:09.237Z,20.96
2022-10-21T00:37:15.464Z,21.02
2022-10-21T00:42:21.338Z,21.06
2022-10-21T00:47:24.431Z,21.05
2022-10-21T00:52:29.803Z,21.04
2022-10-21T00:57:35.532Z,21.07
2022-10-21T01:02:39.176Z,21.07
2022-10-21T01:07:43.091Z,21.13
2022-10-21T01:12:56.820Z,21.09
2022-10-21T01:18:23.545Z,21.03
2022-10-21T01:23:51.676Z,21.00
2022-10-21T01:29:09.693Z,21.03
2022-10-21T01:34:14.666Z,21.06
2022-10-21T01:39:28.211Z,21.11
2022-10-21T01:44:48.374Z,21.14
2022-10-21T01:50:04.960Z,21.15
2022-10-21T01:55:12.727Z,21.12
2022-10-21T02:00:16.402Z,21.12
2022-10-21T02:05:27.771Z,21.12
2022-10-21T02:10:37.336Z,21.11
2022-10-21T02:15:42.533Z,21.06
2022-10-21T02:20:56.220Z,21.01
2022-10-21T02:26:00.095Z,21.01
2022-10-21T02:31:06.249Z,20.97
2022-10-21T02:36:47.795Z,20.92
2022-10-21T02:41:54.033Z,20.83
2022-10-21T02:47:29.974Z,20.74
2022-10-21T02:52:33.515Z,20.69
2022-10-21T02:57:37.248Z,20.66
2022-10-21T03:02:41.235Z,20.66
2022-10-21T03:07:46.796Z,20.68
2022-10-21T03:12:50.720Z,20.64
2022-10-21T03:17:54.056Z,20.59
2022-10-21T03:22:57.398Z,20.62
2022-10-21T03:28:02.106Z,20.64
2022-10-21T03:33:06.146Z,20.63
2022-10-21T03:38:10.859Z,20.59
2022-10-21T03:43:14.242Z,20.56
2022-10-21T03:48:19.247Z,20.58
2022-10-21T03:53:42.183Z,20.59
2022-10-21T03:58:47.029Z,20.65
2022-10-21T04:03:50.760Z,20.73
2022-10-21T04:08:58.734Z,20.81
2022-10-21T04:14:02.335Z,20.83
2022-10-21T04:19:05.774Z,20.86
2022-10-21T04:24:11.269Z,20.86
2022-10-21T04:29:14.913Z,20.84
2022-10-21T04:34:18.784Z,20.86
2022-10-21T04:39:22.448Z,20.89
2022-10-21T04:44:25.872Z,20.92
2022-10-21T04:49:29.731Z,21.01
2022-10-21T04:54:34.246Z,21.13
2022-10-21T04:59:37.772Z,21.25
2022-10-21T05:04:41.700Z,21.34
2022-10-21T05:09:45.567Z,21.38
2022-10-21T05:14:48.995Z,21.39
2022-10-21T05:19:52.607Z,21.37
2022-10-21T05:24:55.964Z,21.38
2022-10-21T05:29:59.460Z,21.46
2022-10-21T05:35:03.003Z,21.65
2022-10-21T05:40:08.170Z,21.85
2022-10-21T05:45:13.295Z,22.12
2022-10-21T05:50:17.494Z,22.54
2022-10-21T05:55:21.610Z,22.82
2022-10-21T06:00:25.340Z,22.89
2022-10-21T06:05:33.860Z,22.75
2022-10-21T06:10:37.341Z,22.61
2022-10-21T06:15:40.929Z,22.53
2022-10-21T06:20:44.446Z,22.61
2022-10-21T06:26:01.189Z,22.86
2022-10-21T06:31:05.536Z,23.02
2022-10-21T06:36:09.384Z,23.13
2022-10-21T06:41:14.525Z,23.20
2022-10-21T06:46:18.585Z,23.14
2022-10-21T06:51:23.454Z,22.99
2022-10-21T06:56:27.978Z,22.87
2022-10-21T07:01:55.335Z,22.92
2022-10-21T07:06:55.658Z,23.22
2022-10-21T07:12:01.035Z,23.32
2022-10-21T07:17:05.372Z,23.48
2022-10-21T07:22:08.671Z,23.71
2022-10-21T07:27:12.196Z,23.79
2022-10-21T07:32:15.706Z,23.74
2022-10-21T07:37:19.073Z,23.65
2022-10-21T07:42:22.616Z,23.64
2022-10-21T07:47:26.148Z,23.67
2022-10-21T07:52:30.314Z,23.74
2022-10-21T07:57:35.246Z,23.85
2022-10-21T08:02:38.738Z,23.98
2022-10-21T08:07:42.739Z,24.33
2022-10-21T08:12:46.011Z,24.51
2022-10-21T08:17:49.235Z,24.72
2022-10-21T08:22:52.749Z,24.68
2022-10-21T08:27:56.947Z,24.55
2022-10-21T08:33:00.882Z,24.42
2022-10-21T08:38:04.451Z,24.48
2022-10-21T08:43:11.084Z,24.51
2022-10-21T08:48:20.162Z,24.45
2022-10-21T08:53:33.430Z,24.44
2022-10-21T08:58:37.210Z,24.39
2022-10-21T09:03:52.392Z,24.47
2022-10-21T09:09:18.200Z,24.56
2022-10-21T09:14:40.215Z,24.77
2022-10-21T09:20:01.826Z,24.92
2022-10-21T09:25:43.717Z,24.88
2022-10-21T09:30:47.900Z,24.83
2022-10-21T09:36:02.979Z,24.91
2022-10-21T09:41:13.981Z,25.01
2022-10-21T09:46:21.296Z,25.16
2022-10-21T09:51:32.056Z,25.17
2022-10-21T09:56:50.365Z,25.04
2022-10-21T10:01:55.767Z,24.86
2022-10-21T10:07:20.935Z,24.80
2022-10-21T10:12:27.421Z,24.85
2022-10-21T10:17:33.393Z,24.89
2022-10-21T10:22:45.089Z,25.01
2022-10-21T10:27:51.749Z,25.07
2022-10-21T10:32:57.080Z,24.99
2022-10-21T10:38:02.102Z,25.01
2022-10-21T10:43:22.352Z,25.03
2022-10-21T10:48:50.948Z,25.17
2022-10-21T10:54:25.362Z,25.19
2022-10-21T10:59:38.257Z,25.17
2022-10-21T11:04:46.762Z,25.10
2022-10-21T11:09:52.942Z,24.97
2022-10-21T11:14:58.805Z,25.00
2022-10-21T11:20:16.971Z,24.99
2022-10-21T11:25:28.964Z,25.00
2022-10-21T11:31:07.182Z,24.85
2022-10-21T11:36:16.273Z,24.85
2022-10-21T11:41:44.229Z,24.94
2022-10-21T11:47:06.556Z,24.97
2022-10-21T11:52:25.350Z,25.09
2022-10-21T11:57:39.520Z,24.99
2022-10-21T12:03:11.872Z,24.88
2022-10-21T12:08:43.842Z,24.70
2022-10-21T12:13:53.366Z,24.61
2022-10-21T12:19:04.590Z,24.50
2022-10-21T12:24:40.774Z,24.41
2022-10-21T12:30:26.513Z,24.34
2022-10-21T12:35:52.657Z,24.18
2022-10-21T12:41:20.794Z,24.08
2022-10-21T12:46:46.283Z,24.03
2022-10-21T12:52:14.714Z,23.98
2022-10-21T12:57:37.673Z,23.94
2022-10-21T13:03:10.370Z,23.93
2022-10-21T13:08:19.653Z,23.89
2022-10-21T13:13:44.803Z,23.82
2022-10-21T13:18:52.330Z,23.80
2022-10-21T13:23:58.339Z,23.75
2022-10-21T13:29:16.604Z,23.74
2022-10-21T13:34:28.542Z,23.62
2022-10-21T13:39:34.360Z,23.54
2022-10-21T13:44:40.735Z,23.47
2022-10-21T13:49:51.716Z,23.45
2022-10-21T13:55:00.538Z,23.45
2022-10-21T14:00:10.080Z,23.41
2022-10-21T14:05:54.096Z,23.45
2022-10-21T14:11:01.096Z,23.53
2022-10-21T14:16:06.952Z,23.47
2022-10-21T14:21:19.750Z,23.35
2022-10-21T14:26:23.347Z,23.16
2022-10-21T14:31:27.739Z,23.04
2022-10-21T14:36:31.857Z,22.96
2022-10-21T14:41:37.253Z,22.82
2022-10-21T14:46:46.467Z,22.66
2022-10-21T14:51:50.885Z,22.56
2022-10-21T14:56:56.207Z,22.44
2022-10-21T15:02:01.281Z,22.33
2022-10-21T15:07:04.855Z,22.23
2022-10-21T15:12:20.172Z,22.21
2022-10-21T15:17:23.678Z,22.16
2022-10-21T15:22:33.874Z,22.08
2022-10-21T15:27:43.000Z,22.04
2022-10-21T15:32:50.107Z,22.00
2022-10-21T15:37:54.687Z,21.96
2022-10-21T15:42:58.068Z,21.90
2022-10-21T15:48:01.259Z,21.85
2022-10-21T15:53:04.795Z,21.80
2022-10-21T15:58:10.153Z,21.78
2022-10-21T16:03:13.968Z,21.74
2022-10-21T16:08:17.309Z,21.69
2022-10-21T16:13:20.552Z,21.69
2022-10-21T16:18:23.923Z,21.65
2022-10-21T16:23:27.897Z,21.65
2022-10-21T16:28:31.512Z,21.61
2022-10-21T16:33:36.160Z,21.60
2022-10-21T16:38:39.416Z,21.57
2022-10-21T16:43:43.958Z,21.54
2022-10-21T16:48:47.491Z,21.52
2022-10-21T16:53:50.943Z,21.49
2022-10-21T16:58:54.662Z,21.49
2022-10-21T17:03:58.177Z,21.46
2022-10-21T17:09:01.655Z,21.44
2022-10-21T17:14:07.782Z,21.43
2022-10-21T17:19:12.775Z,21.42
2022-10-21T17:24:17.699Z,21.39
2022-10-21T17:29:20.958Z,21.37
2022-10-21T17:34:30.877Z,21.35
2022-10-21T17:39:34.474Z,21.29
2022-10-21T17:44:37.907Z,21.29
2022-10-21T17:49:41.792Z,21.27
2022-10-21T17:54:45.132Z,21.28
2022-10-21T17:59:48.481Z,21.26
2022-10-21T18:04:55.680Z,21.26
2022-10-21T18:09:59.332Z,21.22
2022-10-21T18:15:03.442Z,21.20
2022-10-21T18:20:07.663Z,21.20
2022-10-21T18:25:12.254Z,21.19
2022-10-21T18:30:16.083Z,21.18
2022-10-21T18:35:19.907Z,21.17
2022-10-21T18:40:23.343Z,21.16
2022-10-21T18:45:29.795Z,21.14
2022-10-21T18:50:36.050Z,21.09
2022-10-21T18:55:42.087Z,21.08
2022-10-21T19:00:45.669Z,21.06
2022-10-21T19:05:49.817Z,21.05
2022-10-21T19:10:53.240Z,21.02
2022-10-21T19:15:56.427Z,21.00
2022-10-21T19:20:59.834Z,21.00
2022-10-21T19:26:06.396Z,20.96
2022-10-21T19:31:10.957Z,21.04
2022-10-21T19:36:14.451Z,21.13
2022-10-21T19:41:21.154Z,21.16
2022-10-21T19:46:26.567Z,21.13
2022-10-21T19:51:30.355Z,21.10
2022-10-21T19:56:34.540Z,21.09
2022-10-21T20:01:38.216Z,21.02
2022-10-21T20:06:41.790Z,21.02
2022-10-21T20:11:45.053Z,20.99
2022-10-21T20:16:49.640Z,20.97
2022-10-21T20:21:52.811Z,20.97
2022-10-21T20:26:59.682Z,20.96
2022-10-21T20:32:05.655Z,20.92
2022-10-21T20:37:09.210Z,20.95
2022-10-21T20:42:12.618Z,20.97
2022-10-21T20:47:16.223Z,20.97
2022-10-21T20:52:19.743Z,20.96
2022-10-21T20:57:22.999Z,20.97
2022-10-21T21:02:26.349Z,20.98
2022-10-21T21:07:31.259Z,21.01
2022-10-21T21:12:41.864Z,21.04
2022-10-21T21:17:48.732Z,21.12
2022-10-21T21:22:52.163Z,21.15
2022-10-21T21:27:55.397Z,21.14
2022-10-21T21:32:58.864Z,21.10
2022-10-21T21:38:02.572Z,21.06
2022-10-21T21:43:05.925Z,21.01
2022-10-21T21:48:09.143Z,20.96
2022-10-21T21:53:15.968Z,20.97
2022-10-21T21:58:19.680Z,20.94
2022-10-21T22:03:23.549Z,20.91
2022-10-21T22:08:27.104Z,20.84
2022-10-21T22:13:30.463Z,20.81
2022-10-21T22:18:34.076Z,20.77
2022-10-21T22:23:40.892Z,20.76
2022-10-21T22:28:45.186Z,20.76
2022-10-21T22:33:48.803Z,20.73
2022-10-21T22:38:52.292Z,20.71
2022-10-21T22:43:56.526Z,20.76
2022-10-21T22:48:59.833Z,20.81
2022-10-21T22:54:03.654Z,20.83
2022-10-21T22:59:07.130Z,20.83
2022-10-21T23:04:11.183Z,20.83
2022-10-21T23:09:14.626Z,20.82
2022-10-21T23:14:17.986Z,20.83
2022-10-21T23:19:21.301Z,20.84
2022-10-21T23:24:24.568Z,20.86
2022-10-21T23:29:28.171Z,20.84
2022-10-21T23:34:32.221Z,20.80
2022-10-21T23:39:35.752Z,20.76
2022-10-21T23:44:38.994Z,20.76
2022-10-21T23:49:42.404Z,20.75
2022-10-21T23:54:45.941Z,20.77
2022-10-21T23:59:49.622Z,20.80
